sensor_id;sensor_type;location;lat;lon;timestamp;P1;durP1;ratioP1;P2;durP2;ratioP2
66139;SDS011;52945;51.908;8.364;2022-10-16T00:00:26;4.75;;;2.08;;
66139;SDS011;52945;51.908;8.364;2022-10-16T00:06:28;3.60;;;1.70;;
66139;SDS011;52945;51.908;8.364;2022-10-16T00:09:29;3.90;;;2.20;;
66139;SDS011;52945;51.908;8.364;2022-10-16T00:12:30;2.85;;;1.48;;
66139;SDS011;52945;51.908;8.364;2022-10-16T00:15:32;3.50;;;2.28;;
66139;SDS011;52945;51.908;8.364;2022-10-16T00:18:36;2.58;;;1.90;;
66139;SDS011;52945;51.908;8.364;2022-10-16T00:24:38;4.57;;;2.30;;
66139;SDS011;52945;51.908;8.364;2022-10-16T00:27:38;3.05;;;1.92;;
66139;SDS011;52945;51.908;8.364;2022-10-16T00:30:39;8.82;;;2.45;;
66139;SDS011;52945;51.908;8.364;2022-10-16T00:33:39;4.32;;;1.98;;
66139;SDS011;52945;51.908;8.364;2022-10-16T00:36:40;4.15;;;2.10;;
66139;SDS011;52945;51.908;8.364;2022-10-16T00:39:41;3.72;;;2.10;;
66139;SDS011;52945;51.908;8.364;2022-10-16T00:42:41;3.17;;;1.90;;
66139;SDS011;52945;51.908;8.364;2022-10-16T00:45:42;3.65;;;1.88;;
66139;SDS011;52945;51.908;8.364;2022-10-16T00:48:45;2.65;;;1.77;;
66139;SDS011;52945;51.908;8.364;2022-10-16T00:51:55;5.45;;;1.75;;
66139;SDS011;52945;51.908;8.364;2022-10-16T00:54:56;3.10;;;1.90;;
66139;SDS011;52945;51.908;8.364;2022-10-16T00:57:57;6.03;;;2.35;;
66139;SDS011;52945;51.908;8.364;2022-10-16T01:00:58;8.10;;;2.35;;
66139;SDS011;52945;51.908;8.364;2022-10-16T01:03:59;6.07;;;2.40;;
66139;SDS011;52945;51.908;8.364;2022-10-16T01:10:31;3.20;;;2.10;;
66139;SDS011;52945;51.908;8.364;2022-10-16T01:13:40;3.95;;;2.10;;
66139;SDS011;52945;51.908;8.364;2022-10-16T01:16:44;3.78;;;2.20;;
66139;SDS011;52945;51.908;8.364;2022-10-16T01:23:21;3.83;;;2.10;;
66139;SDS011;52945;51.908;8.364;2022-10-16T01:29:56;3.38;;;2.17;;
66139;SDS011;52945;51.908;8.364;2022-10-16T01:33:04;3.90;;;2.40;;
66139;SDS011;52945;51.908;8.364;2022-10-16T01:39:13;3.17;;;1.88;;
66139;SDS011;52945;51.908;8.364;2022-10-16T01:42:25;4.63;;;2.05;;
66139;SDS011;52945;51.908;8.364;2022-10-16T01:45:33;4.03;;;2.03;;
66139;SDS011;52945;51.908;8.364;2022-10-16T01:48:35;3.75;;;2.35;;
66139;SDS011;52945;51.908;8.364;2022-10-16T01:51:37;3.58;;;2.00;;
66139;SDS011;52945;51.908;8.364;2022-10-16T01:54:39;3.60;;;2.15;;
66139;SDS011;52945;51.908;8.364;2022-10-16T01:57:44;4.53;;;2.20;;
66139;SDS011;52945;51.908;8.364;2022-10-16T02:00:48;2.88;;;1.80;;
66139;SDS011;52945;51.908;8.364;2022-10-16T02:03:51;2.50;;;1.83;;
66139;SDS011;52945;51.908;8.364;2022-10-16T02:06:54;2.63;;;1.77;;
66139;SDS011;52945;51.908;8.364;2022-10-16T02:29:49;3.20;;;2.00;;
66139;SDS011;52945;51.908;8.364;2022-10-16T02:32:54;2.95;;;1.88;;
66139;SDS011;52945;51.908;8.364;2022-10-16T02:35:58;3.47;;;2.00;;
66139;SDS011;52945;51.908;8.364;2022-10-16T02:38:59;4.88;;;2.30;;
66139;SDS011;52945;51.908;8.364;2022-10-16T02:42:01;3.53;;;2.40;;
66139;SDS011;52945;51.908;8.364;2022-10-16T02:45:02;3.80;;;2.20;;
66139;SDS011;52945;51.908;8.364;2022-10-16T02:48:04;4.20;;;2.17;;
66139;SDS011;52945;51.908;8.364;2022-10-16T02:51:05;4.60;;;1.95;;
66139;SDS011;52945;51.908;8.364;2022-10-16T02:54:06;3.10;;;2.05;;
66139;SDS011;52945;51.908;8.364;2022-10-16T02:57:07;3.30;;;2.20;;
66139;SDS011;52945;51.908;8.364;2022-10-16T03:00:08;3.08;;;2.05;;
66139;SDS011;52945;51.908;8.364;2022-10-16T03:03:11;3.10;;;1.77;;
66139;SDS011;52945;51.908;8.364;2022-10-16T03:06:12;2.58;;;1.95;;
66139;SDS011;52945;51.908;8.364;2022-10-16T03:09:12;3.20;;;1.90;;
66139;SDS011;52945;51.908;8.364;2022-10-16T03:12:13;2.53;;;1.98;;
66139;SDS011;52945;51.908;8.364;2022-10-16T03:15:13;2.83;;;1.98;;
66139;SDS011;52945;51.908;8.364;2022-10-16T03:18:14;4.20;;;1.90;;
66139;SDS011;52945;51.908;8.364;2022-10-16T03:21:15;2.92;;;2.05;;
66139;SDS011;52945;51.908;8.364;2022-10-16T03:24:16;3.05;;;1.92;;
66139;SDS011;52945;51.908;8.364;2022-10-16T03:27:17;2.88;;;1.77;;
66139;SDS011;52945;51.908;8.364;2022-10-16T03:30:17;4.72;;;2.05;;
66139;SDS011;52945;51.908;8.364;2022-10-16T03:33:18;3.80;;;1.80;;
66139;SDS011;52945;51.908;8.364;2022-10-16T03:36:19;4.15;;;1.80;;
66139;SDS011;52945;51.908;8.364;2022-10-16T03:39:19;3.53;;;2.03;;
66139;SDS011;52945;51.908;8.364;2022-10-16T03:42:20;4.05;;;1.58;;
66139;SDS011;52945;51.908;8.364;2022-10-16T03:45:21;2.80;;;1.80;;
66139;SDS011;52945;51.908;8.364;2022-10-16T03:48:21;3.50;;;1.85;;
66139;SDS011;52945;51.908;8.364;2022-10-16T03:51:22;2.35;;;1.63;;
66139;SDS011;52945;51.908;8.364;2022-10-16T03:54:22;2.80;;;1.73;;
66139;SDS011;52945;51.908;8.364;2022-10-16T03:57:23;2.42;;;1.55;;
66139;SDS011;52945;51.908;8.364;2022-10-16T04:03:25;1.90;;;1.60;;
66139;SDS011;52945;51.908;8.364;2022-10-16T04:06:25;4.05;;;1.52;;
66139;SDS011;52945;51.908;8.364;2022-10-16T04:09:26;1.70;;;1.23;;
66139;SDS011;52945;51.908;8.364;2022-10-16T04:12:27;3.50;;;1.50;;
66139;SDS011;52945;51.908;8.364;2022-10-16T04:15:27;3.22;;;1.48;;
66139;SDS011;52945;51.908;8.364;2022-10-16T04:18:28;1.88;;;1.50;;
66139;SDS011;52945;51.908;8.364;2022-10-16T04:21:29;3.25;;;1.75;;
66139;SDS011;52945;51.908;8.364;2022-10-16T04:24:29;1.55;;;1.27;;
66139;SDS011;52945;51.908;8.364;2022-10-16T04:27:30;3.83;;;1.70;;
66139;SDS011;52945;51.908;8.364;2022-10-16T04:33:33;2.85;;;1.42;;
66139;SDS011;52945;51.908;8.364;2022-10-16T04:36:34;2.35;;;1.38;;
66139;SDS011;52945;51.908;8.364;2022-10-16T04:39:34;1.50;;;1.40;;
66139;SDS011;52945;51.908;8.364;2022-10-16T04:42:35;1.85;;;1.50;;
66139;SDS011;52945;51.908;8.364;2022-10-16T04:45:36;2.45;;;1.27;;
66139;SDS011;52945;51.908;8.364;2022-10-16T04:48:36;3.38;;;1.38;;
66139;SDS011;52945;51.908;8.364;2022-10-16T04:51:37;2.35;;;1.73;;
66139;SDS011;52945;51.908;8.364;2022-10-16T04:54:38;3.63;;;1.58;;
66139;SDS011;52945;51.908;8.364;2022-10-16T04:57:38;1.55;;;1.45;;
66139;SDS011;52945;51.908;8.364;2022-10-16T05:00:39;2.45;;;1.50;;
66139;SDS011;52945;51.908;8.364;2022-10-16T05:06:40;1.75;;;1.42;;
66139;SDS011;52945;51.908;8.364;2022-10-16T05:09:41;3.47;;;1.27;;
66139;SDS011;52945;51.908;8.364;2022-10-16T05:12:42;2.53;;;1.20;;
66139;SDS011;52945;51.908;8.364;2022-10-16T05:15:46;1.73;;;1.33;;
66139;SDS011;52945;51.908;8.364;2022-10-16T05:18:48;1.60;;;1.40;;
66139;SDS011;52945;51.908;8.364;2022-10-16T05:21:48;1.95;;;1.40;;
66139;SDS011;52945;51.908;8.364;2022-10-16T05:24:49;1.83;;;1.10;;
66139;SDS011;52945;51.908;8.364;2022-10-16T05:27:49;2.47;;;1.33;;
66139;SDS011;52945;51.908;8.364;2022-10-16T05:30:50;2.65;;;1.30;;
66139;SDS011;52945;51.908;8.364;2022-10-16T05:33:51;3.75;;;1.30;;
66139;SDS011;52945;51.908;8.364;2022-10-16T05:36:52;1.67;;;1.30;;
66139;SDS011;52945;51.908;8.364;2022-10-16T05:39:52;1.70;;;1.20;;
66139;SDS011;52945;51.908;8.364;2022-10-16T05:42:56;2.15;;;1.27;;
66139;SDS011;52945;51.908;8.364;2022-10-16T05:45:57;1.98;;;1.30;;
66139;SDS011;52945;51.908;8.364;2022-10-16T05:48:59;1.40;;;1.30;;
66139;SDS011;52945;51.908;8.364;2022-10-16T05:52:00;3.30;;;1.30;;
66139;SDS011;52945;51.908;8.364;2022-10-16T05:55:00;2.67;;;1.10;;
66139;SDS011;52945;51.908;8.364;2022-10-16T05:58:01;1.98;;;1.20;;
66139;SDS011;52945;51.908;8.364;2022-10-16T06:01:03;2.28;;;1.30;;
66139;SDS011;52945;51.908;8.364;2022-10-16T06:04:07;2.70;;;1.30;;
66139;SDS011;52945;51.908;8.364;2022-10-16T06:07:08;2.28;;;1.23;;
66139;SDS011;52945;51.908;8.364;2022-10-16T06:10:09;2.40;;;1.20;;
66139;SDS011;52945;51.908;8.364;2022-10-16T06:13:10;1.85;;;1.38;;
66139;SDS011;52945;51.908;8.364;2022-10-16T06:16:11;2.13;;;1.20;;
66139;SDS011;52945;51.908;8.364;2022-10-16T06:19:12;1.30;;;1.20;;
66139;SDS011;52945;51.908;8.364;2022-10-16T06:22:13;1.73;;;1.30;;
66139;SDS011;52945;51.908;8.364;2022-10-16T06:25:13;2.58;;;1.20;;
66139;SDS011;52945;51.908;8.364;2022-10-16T06:28:14;1.90;;;1.40;;
66139;SDS011;52945;51.908;8.364;2022-10-16T06:34:16;1.20;;;1.10;;
66139;SDS011;52945;51.908;8.364;2022-10-16T06:37:17;3.17;;;1.30;;
66139;SDS011;52945;51.908;8.364;2022-10-16T06:40:18;2.85;;;1.13;;
66139;SDS011;52945;51.908;8.364;2022-10-16T06:43:18;2.83;;;1.45;;
66139;SDS011;52945;51.908;8.364;2022-10-16T06:46:20;5.50;;;1.38;;
66139;SDS011;52945;51.908;8.364;2022-10-16T06:49:22;1.67;;;1.25;;
66139;SDS011;52945;51.908;8.364;2022-10-16T06:52:22;1.42;;;1.20;;
66139;SDS011;52945;51.908;8.364;2022-10-16T06:55:23;2.42;;;1.45;;
66139;SDS011;52945;51.908;8.364;2022-10-16T06:58:24;1.30;;;1.20;;
66139;SDS011;52945;51.908;8.364;2022-10-16T07:01:25;1.30;;;1.20;;
66139;SDS011;52945;51.908;8.364;2022-10-16T07:04:26;2.65;;;1.38;;
66139;SDS011;52945;51.908;8.364;2022-10-16T07:07:26;1.50;;;1.20;;
66139;SDS011;52945;51.908;8.364;2022-10-16T07:10:27;1.35;;;1.23;;
66139;SDS011;52945;51.908;8.364;2022-10-16T07:13:28;1.75;;;1.30;;
66139;SDS011;52945;51.908;8.364;2022-10-16T07:16:29;1.17;;;1.00;;
66139;SDS011;52945;51.908;8.364;2022-10-16T07:19:32;2.00;;;1.35;;
66139;SDS011;52945;51.908;8.364;2022-10-16T07:22:32;1.20;;;1.10;;
66139;SDS011;52945;51.908;8.364;2022-10-16T07:25:33;1.33;;;1.02;;
66139;SDS011;52945;51.908;8.364;2022-10-16T07:28:33;1.20;;;1.05;;
66139;SDS011;52945;51.908;8.364;2022-10-16T07:31:34;1.27;;;1.10;;
66139;SDS011;52945;51.908;8.364;2022-10-16T07:34:36;1.23;;;1.13;;
66139;SDS011;52945;51.908;8.364;2022-10-16T07:37:36;1.50;;;1.10;;
66139;SDS011;52945;51.908;8.364;2022-10-16T07:40:37;1.35;;;1.25;;
66139;SDS011;52945;51.908;8.364;2022-10-16T07:43:37;2.10;;;1.40;;
66139;SDS011;52945;51.908;8.364;2022-10-16T07:46:38;2.03;;;1.02;;
66139;SDS011;52945;51.908;8.364;2022-10-16T07:49:39;1.52;;;1.08;;
66139;SDS011;52945;51.908;8.364;2022-10-16T07:52:39;1.80;;;1.10;;
66139;SDS011;52945;51.908;8.364;2022-10-16T07:55:40;1.45;;;1.30;;
66139;SDS011;52945;51.908;8.364;2022-10-16T07:58:41;1.20;;;1.10;;
66139;SDS011;52945;51.908;8.364;2022-10-16T08:01:42;1.15;;;1.05;;
66139;SDS011;52945;51.908;8.364;2022-10-16T08:04:42;1.05;;;0.98;;
66139;SDS011;52945;51.908;8.364;2022-10-16T08:07:48;1.48;;;0.98;;
66139;SDS011;52945;51.908;8.364;2022-10-16T08:10:49;1.10;;;1.00;;
66139;SDS011;52945;51.908;8.364;2022-10-16T08:13:49;2.95;;;1.10;;
66139;SDS011;52945;51.908;8.364;2022-10-16T08:19:50;5.70;;;1.45;;
66139;SDS011;52945;51.908;8.364;2022-10-16T08:25:52;0.82;;;0.82;;
66139;SDS011;52945;51.908;8.364;2022-10-16T08:28:53;1.27;;;0.95;;
66139;SDS011;52945;51.908;8.364;2022-10-16T08:31:55;1.55;;;0.88;;
66139;SDS011;52945;51.908;8.364;2022-10-16T08:37:56;1.10;;;0.90;;
66139;SDS011;52945;51.908;8.364;2022-10-16T08:41:00;0.65;;;0.65;;
66139;SDS011;52945;51.908;8.364;2022-10-16T08:51:18;2.08;;;0.77;;
66139;SDS011;52945;51.908;8.364;2022-10-16T08:57:31;1.67;;;0.90;;
66139;SDS011;52945;51.908;8.364;2022-10-16T09:00:32;0.80;;;0.80;;
66139;SDS011;52945;51.908;8.364;2022-10-16T09:10:56;0.82;;;0.60;;
66139;SDS011;52945;51.908;8.364;2022-10-16T09:14:06;0.77;;;0.60;;
66139;SDS011;52945;51.908;8.364;2022-10-16T09:17:38;2.10;;;0.60;;
66139;SDS011;52945;51.908;8.364;2022-10-16T09:24:30;2.15;;;0.80;;
66139;SDS011;52945;51.908;8.364;2022-10-16T09:27:31;0.70;;;0.68;;
66139;SDS011;52945;51.908;8.364;2022-10-16T09:30:32;0.75;;;0.70;;
66139;SDS011;52945;51.908;8.364;2022-10-16T09:33:36;2.15;;;0.93;;
66139;SDS011;52945;51.908;8.364;2022-10-16T09:36:40;1.10;;;0.80;;
66139;SDS011;52945;51.908;8.364;2022-10-16T09:39:48;1.35;;;0.68;;
66139;SDS011;52945;51.908;8.364;2022-10-16T09:42:52;0.65;;;0.65;;
66139;SDS011;52945;51.908;8.364;2022-10-16T09:49:18;1.15;;;0.60;;
66139;SDS011;52945;51.908;8.364;2022-10-16T09:52:24;1.13;;;0.68;;
66139;SDS011;52945;51.908;8.364;2022-10-16T09:55:25;2.00;;;0.55;;
66139;SDS011;52945;51.908;8.364;2022-10-16T09:58:26;2.60;;;0.60;;
66139;SDS011;52945;51.908;8.364;2022-10-16T10:01:28;1.58;;;0.65;;
66139;SDS011;52945;51.908;8.364;2022-10-16T10:04:39;1.02;;;0.60;;
66139;SDS011;52945;51.908;8.364;2022-10-16T10:07:43;0.98;;;0.50;;
66139;SDS011;52945;51.908;8.364;2022-10-16T10:10:47;1.65;;;0.50;;
66139;SDS011;52945;51.908;8.364;2022-10-16T10:13:48;1.17;;;0.47;;
66139;SDS011;52945;51.908;8.364;2022-10-16T10:16:49;0.93;;;0.68;;
66139;SDS011;52945;51.908;8.364;2022-10-16T10:19:53;2.15;;;0.85;;
66139;SDS011;52945;51.908;8.364;2022-10-16T10:22:55;2.20;;;0.40;;
66139;SDS011;52945;51.908;8.364;2022-10-16T10:25:59;0.65;;;0.47;;
66139;SDS011;52945;51.908;8.364;2022-10-16T10:29:30;1.65;;;0.40;;
66139;SDS011;52945;51.908;8.364;2022-10-16T10:36:39;2.45;;;0.65;;
66139;SDS011;52945;51.908;8.364;2022-10-16T10:39:47;1.30;;;0.45;;
66139;SDS011;52945;51.908;8.364;2022-10-16T10:46:35;2.25;;;0.80;;
66139;SDS011;52945;51.908;8.364;2022-10-16T10:59:48;0.60;;;0.52;;
66139;SDS011;52945;51.908;8.364;2022-10-16T11:03:08;2.13;;;0.80;;
66139;SDS011;52945;51.908;8.364;2022-10-16T11:06:26;1.38;;;0.63;;
66139;SDS011;52945;51.908;8.364;2022-10-16T11:09:33;1.17;;;0.65;;
66139;SDS011;52945;51.908;8.364;2022-10-16T11:12:39;0.57;;;0.45;;
66139;SDS011;52945;51.908;8.364;2022-10-16T11:15:44;0.60;;;0.55;;
66139;SDS011;52945;51.908;8.364;2022-10-16T11:25:40;0.47;;;0.47;;
66139;SDS011;52945;51.908;8.364;2022-10-16T11:28:50;2.03;;;0.60;;
66139;SDS011;52945;51.908;8.364;2022-10-16T11:31:59;2.80;;;0.70;;
66139;SDS011;52945;51.908;8.364;2022-10-16T11:35:10;0.95;;;0.45;;
66139;SDS011;52945;51.908;8.364;2022-10-16T11:41:32;0.98;;;0.50;;
66139;SDS011;52945;51.908;8.364;2022-10-16T11:44:57;0.65;;;0.60;;
66139;SDS011;52945;51.908;8.364;2022-10-16T11:49:03;1.45;;;0.60;;
66139;SDS011;52945;51.908;8.364;2022-10-16T11:52:25;2.45;;;0.75;;
66139;SDS011;52945;51.908;8.364;2022-10-16T11:55:09;1.67;;;0.65;;
66139;SDS011;52945;51.908;8.364;2022-10-16T12:04:33;1.17;;;0.40;;
66139;SDS011;52945;51.908;8.364;2022-10-16T12:07:48;0.85;;;0.50;;
66139;SDS011;52945;51.908;8.364;2022-10-16T12:11:06;1.23;;;0.60;;
66139;SDS011;52945;51.908;8.364;2022-10-16T12:17:26;0.57;;;0.43;;
66139;SDS011;52945;51.908;8.364;2022-10-16T12:20:34;1.85;;;0.75;;
66139;SDS011;52945;51.908;8.364;2022-10-16T12:23:37;2.22;;;0.80;;
66139;SDS011;52945;51.908;8.364;2022-10-16T12:26:46;1.48;;;0.70;;
66139;SDS011;52945;51.908;8.364;2022-10-16T12:29:53;1.02;;;0.57;;
66139;SDS011;52945;51.908;8.364;2022-10-16T12:33:00;1.30;;;0.57;;
66139;SDS011;52945;51.908;8.364;2022-10-16T12:36:15;2.00;;;0.73;;
66139;SDS011;52945;51.908;8.364;2022-10-16T12:39:27;0.52;;;0.52;;
66139;SDS011;52945;51.908;8.364;2022-10-16T12:42:34;1.05;;;0.75;;
66139;SDS011;52945;51.908;8.364;2022-10-16T12:45:35;1.58;;;0.70;;
66139;SDS011;52945;51.908;8.364;2022-10-16T12:48:39;0.80;;;0.80;;
66139;SDS011;52945;51.908;8.364;2022-10-16T12:51:44;0.82;;;0.70;;
66139;SDS011;52945;51.908;8.364;2022-10-16T12:54:45;1.92;;;0.95;;
66139;SDS011;52945;51.908;8.364;2022-10-16T12:57:57;1.92;;;0.98;;
66139;SDS011;52945;51.908;8.364;2022-10-16T13:01:25;1.77;;;0.90;;
66139;SDS011;52945;51.908;8.364;2022-10-16T13:11:39;1.40;;;0.95;;
66139;SDS011;52945;51.908;8.364;2022-10-16T13:21:22;2.58;;;1.05;;
66139;SDS011;52945;51.908;8.364;2022-10-16T13:24:36;2.28;;;1.83;;
66139;SDS011;52945;51.908;8.364;2022-10-16T13:30:56;0.80;;;0.80;;
66139;SDS011;52945;51.908;8.364;2022-10-16T13:33:58;0.95;;;0.95;;
66139;SDS011;52945;51.908;8.364;2022-10-16T13:37:00;1.90;;;0.90;;
66139;SDS011;52945;51.908;8.364;2022-10-16T13:40:33;2.30;;;0.88;;
66139;SDS011;52945;51.908;8.364;2022-10-16T13:43:29;1.27;;;1.00;;
66139;SDS011;52945;51.908;8.364;2022-10-16T13:46:31;1.02;;;0.98;;
66139;SDS011;52945;51.908;8.364;2022-10-16T13:49:34;1.40;;;0.80;;
66139;SDS011;52945;51.908;8.364;2022-10-16T13:52:34;0.80;;;0.80;;
66139;SDS011;52945;51.908;8.364;2022-10-16T13:55:35;0.82;;;0.70;;
66139;SDS011;52945;51.908;8.364;2022-10-16T13:58:36;1.42;;;0.52;;
66139;SDS011;52945;51.908;8.364;2022-10-16T14:01:40;0.63;;;0.55;;
66139;SDS011;52945;51.908;8.364;2022-10-16T14:04:42;0.65;;;0.65;;
66139;SDS011;52945;51.908;8.364;2022-10-16T14:07:43;0.77;;;0.63;;
66139;SDS011;52945;51.908;8.364;2022-10-16T14:10:49;2.00;;;0.60;;
66139;SDS011;52945;51.908;8.364;2022-10-16T14:13:51;1.85;;;0.70;;
66139;SDS011;52945;51.908;8.364;2022-10-16T14:16:53;0.60;;;0.60;;
66139;SDS011;52945;51.908;8.364;2022-10-16T14:19:57;1.35;;;0.70;;
66139;SDS011;52945;51.908;8.364;2022-10-16T14:29:20;1.30;;;0.60;;
66139;SDS011;52945;51.908;8.364;2022-10-16T14:32:22;1.02;;;0.50;;
66139;SDS011;52945;51.908;8.364;2022-10-16T14:38:38;0.68;;;0.52;;
66139;SDS011;52945;51.908;8.364;2022-10-16T14:41:41;1.20;;;0.60;;
66139;SDS011;52945;51.908;8.364;2022-10-16T14:44:45;1.95;;;0.60;;
66139;SDS011;52945;51.908;8.364;2022-10-16T14:47:58;0.70;;;0.65;;
66139;SDS011;52945;51.908;8.364;2022-10-16T14:51:02;1.05;;;0.60;;
66139;SDS011;52945;51.908;8.364;2022-10-16T14:54:02;2.58;;;1.48;;
66139;SDS011;52945;51.908;8.364;2022-10-16T14:57:03;1.35;;;0.80;;
66139;SDS011;52945;51.908;8.364;2022-10-16T15:00:13;2.00;;;0.90;;
66139;SDS011;52945;51.908;8.364;2022-10-16T15:03:19;1.00;;;0.38;;
66139;SDS011;52945;51.908;8.364;2022-10-16T15:06:20;1.35;;;0.75;;
66139;SDS011;52945;51.908;8.364;2022-10-16T15:09:21;0.60;;;0.60;;
66139;SDS011;52945;51.908;8.364;2022-10-16T15:12:22;0.65;;;0.65;;
66139;SDS011;52945;51.908;8.364;2022-10-16T15:18:25;0.50;;;0.50;;
66139;SDS011;52945;51.908;8.364;2022-10-16T15:21:30;0.70;;;0.70;;
66139;SDS011;52945;51.908;8.364;2022-10-16T15:24:31;1.50;;;0.80;;
66139;SDS011;52945;51.908;8.364;2022-10-16T15:27:32;0.77;;;0.77;;
66139;SDS011;52945;51.908;8.364;2022-10-16T15:30:40;0.75;;;0.52;;
66139;SDS011;52945;51.908;8.364;2022-10-16T15:33:41;1.67;;;0.80;;
66139;SDS011;52945;51.908;8.364;2022-10-16T15:36:41;0.73;;;0.73;;
66139;SDS011;52945;51.908;8.364;2022-10-16T15:39:42;1.23;;;0.60;;
66139;SDS011;52945;51.908;8.364;2022-10-16T15:42:43;2.60;;;0.80;;
66139;SDS011;52945;51.908;8.364;2022-10-16T15:45:43;1.20;;;0.80;;
66139;SDS011;52945;51.908;8.364;2022-10-16T15:48:55;0.77;;;0.70;;
66139;SDS011;52945;51.908;8.364;2022-10-16T15:51:57;2.25;;;0.98;;
66139;SDS011;52945;51.908;8.364;2022-10-16T15:54:58;1.10;;;0.70;;
66139;SDS011;52945;51.908;8.364;2022-10-16T15:57:59;1.75;;;0.93;;
66139;SDS011;52945;51.908;8.364;2022-10-16T16:01:00;0.88;;;0.73;;
66139;SDS011;52945;51.908;8.364;2022-10-16T16:04:01;1.30;;;0.93;;
66139;SDS011;52945;51.908;8.364;2022-10-16T16:07:02;2.80;;;1.55;;
66139;SDS011;52945;51.908;8.364;2022-10-16T16:10:04;0.80;;;0.80;;
66139;SDS011;52945;51.908;8.364;2022-10-16T16:13:06;1.70;;;0.80;;
66139;SDS011;52945;51.908;8.364;2022-10-16T16:16:11;1.15;;;0.80;;
66139;SDS011;52945;51.908;8.364;2022-10-16T16:19:13;1.42;;;1.13;;
66139;SDS011;52945;51.908;8.364;2022-10-16T16:22:16;3.17;;;1.17;;
66139;SDS011;52945;51.908;8.364;2022-10-16T16:25:16;1.63;;;1.10;;
66139;SDS011;52945;51.908;8.364;2022-10-16T16:28:17;2.28;;;1.40;;
66139;SDS011;52945;51.908;8.364;2022-10-16T16:31:18;4.10;;;1.10;;
66139;SDS011;52945;51.908;8.364;2022-10-16T16:34:19;2.15;;;1.35;;
66139;SDS011;52945;51.908;8.364;2022-10-16T16:37:20;3.33;;;1.10;;
66139;SDS011;52945;51.908;8.364;2022-10-16T16:40:21;1.40;;;1.10;;
66139;SDS011;52945;51.908;8.364;2022-10-16T16:43:25;4.10;;;1.25;;
66139;SDS011;52945;51.908;8.364;2022-10-16T16:46:26;1.42;;;1.05;;
66139;SDS011;52945;51.908;8.364;2022-10-16T16:49:27;2.03;;;1.30;;
66139;SDS011;52945;51.908;8.364;2022-10-16T16:52:28;3.63;;;2.30;;
66139;SDS011;52945;51.908;8.364;2022-10-16T16:55:29;5.60;;;2.55;;
66139;SDS011;52945;51.908;8.364;2022-10-16T16:58:29;4.63;;;2.20;;
66139;SDS011;52945;51.908;8.364;2022-10-16T17:01:30;5.38;;;2.30;;
66139;SDS011;52945;51.908;8.364;2022-10-16T17:04:31;4.15;;;2.20;;
66139;SDS011;52945;51.908;8.364;2022-10-16T17:07:32;4.85;;;2.30;;
66139;SDS011;52945;51.908;8.364;2022-10-16T17:10:41;3.88;;;2.00;;
66139;SDS011;52945;51.908;8.364;2022-10-16T17:13:42;3.95;;;2.13;;
66139;SDS011;52945;51.908;8.364;2022-10-16T17:16:44;3.15;;;2.00;;
66139;SDS011;52945;51.908;8.364;2022-10-16T17:19:45;3.33;;;1.60;;
66139;SDS011;52945;51.908;8.364;2022-10-16T17:22:45;3.65;;;1.73;;
66139;SDS011;52945;51.908;8.364;2022-10-16T17:25:46;3.15;;;1.95;;
66139;SDS011;52945;51.908;8.364;2022-10-16T17:28:50;3.17;;;1.80;;
66139;SDS011;52945;51.908;8.364;2022-10-16T17:31:52;3.58;;;1.77;;
66139;SDS011;52945;51.908;8.364;2022-10-16T17:34:52;4.50;;;1.77;;
66139;SDS011;52945;51.908;8.364;2022-10-16T17:37:53;3.33;;;1.90;;
66139;SDS011;52945;51.908;8.364;2022-10-16T17:40:53;3.70;;;1.60;;
66139;SDS011;52945;51.908;8.364;2022-10-16T17:43:54;5.30;;;1.60;;
66139;SDS011;52945;51.908;8.364;2022-10-16T17:46:55;4.00;;;2.03;;
66139;SDS011;52945;51.908;8.364;2022-10-16T17:49:55;3.80;;;1.90;;
66139;SDS011;52945;51.908;8.364;2022-10-16T17:52:57;4.63;;;2.00;;
66139;SDS011;52945;51.908;8.364;2022-10-16T17:56:01;3.92;;;2.20;;
66139;SDS011;52945;51.908;8.364;2022-10-16T17:59:05;3.13;;;1.90;;
66139;SDS011;52945;51.908;8.364;2022-10-16T18:05:08;4.50;;;2.00;;
66139;SDS011;52945;51.908;8.364;2022-10-16T18:08:10;4.47;;;2.05;;
66139;SDS011;52945;51.908;8.364;2022-10-16T18:11:11;4.18;;;2.35;;
66139;SDS011;52945;51.908;8.364;2022-10-16T18:17:14;4.63;;;2.08;;
66139;SDS011;52945;51.908;8.364;2022-10-16T18:20:18;3.42;;;2.00;;
66139;SDS011;52945;51.908;8.364;2022-10-16T18:23:19;3.50;;;1.77;;
66139;SDS011;52945;51.908;8.364;2022-10-16T18:29:21;3.30;;;1.90;;
66139;SDS011;52945;51.908;8.364;2022-10-16T18:32:23;3.53;;;2.10;;
66139;SDS011;52945;51.908;8.364;2022-10-16T18:38:24;3.70;;;1.90;;
66139;SDS011;52945;51.908;8.364;2022-10-16T18:44:26;5.82;;;2.53;;
66139;SDS011;52945;51.908;8.364;2022-10-16T18:50:28;5.68;;;2.72;;
66139;SDS011;52945;51.908;8.364;2022-10-16T18:53:29;3.47;;;2.92;;
66139;SDS011;52945;51.908;8.364;2022-10-16T18:59:31;5.40;;;2.92;;
66139;SDS011;52945;51.908;8.364;2022-10-16T19:05:32;2.88;;;1.85;;
66139;SDS011;52945;51.908;8.364;2022-10-16T19:08:34;5.70;;;2.53;;
66139;SDS011;52945;51.908;8.364;2022-10-16T19:11:37;3.50;;;2.10;;
66139;SDS011;52945;51.908;8.364;2022-10-16T19:17:38;5.45;;;2.03;;
66139;SDS011;52945;51.908;8.364;2022-10-16T19:23:39;3.63;;;1.98;;
66139;SDS011;52945;51.908;8.364;2022-10-16T19:26:41;1.90;;;1.77;;
66139;SDS011;52945;51.908;8.364;2022-10-16T19:29:42;2.85;;;1.90;;
66139;SDS011;52945;51.908;8.364;2022-10-16T19:35:44;4.95;;;1.70;;
66139;SDS011;52945;51.908;8.364;2022-10-16T19:41:46;1.88;;;1.65;;
66139;SDS011;52945;51.908;8.364;2022-10-16T19:47:48;2.10;;;1.50;;
66139;SDS011;52945;51.908;8.364;2022-10-16T19:53:53;2.53;;;1.58;;
66139;SDS011;52945;51.908;8.364;2022-10-16T19:56:55;4.22;;;1.80;;
66139;SDS011;52945;51.908;8.364;2022-10-16T19:59:59;3.00;;;1.60;;
66139;SDS011;52945;51.908;8.364;2022-10-16T20:06:02;2.80;;;1.80;;
66139;SDS011;52945;51.908;8.364;2022-10-16T20:09:05;6.68;;;2.60;;
66139;SDS011;52945;51.908;8.364;2022-10-16T20:15:07;2.80;;;1.63;;
66139;SDS011;52945;51.908;8.364;2022-10-16T20:18:08;4.38;;;1.90;;
66139;SDS011;52945;51.908;8.364;2022-10-16T20:24:09;3.95;;;1.67;;
66139;SDS011;52945;51.908;8.364;2022-10-16T20:30:10;3.65;;;1.63;;
66139;SDS011;52945;51.908;8.364;2022-10-16T20:36:13;2.60;;;1.90;;
66139;SDS011;52945;51.908;8.364;2022-10-16T20:39:15;1.88;;;1.73;;
66139;SDS011;52945;51.908;8.364;2022-10-16T20:42:15;3.72;;;1.70;;
66139;SDS011;52945;51.908;8.364;2022-10-16T20:48:16;3.40;;;1.70;;
66139;SDS011;52945;51.908;8.364;2022-10-16T20:51:18;3.50;;;2.10;;
66139;SDS011;52945;51.908;8.364;2022-10-16T20:54:23;2.40;;;1.70;;
66139;SDS011;52945;51.908;8.364;2022-10-16T20:57:24;6.55;;;2.20;;
66139;SDS011;52945;51.908;8.364;2022-10-16T21:03:25;2.30;;;1.73;;
66139;SDS011;52945;51.908;8.364;2022-10-16T21:09:27;2.95;;;1.90;;
66139;SDS011;52945;51.908;8.364;2022-10-16T21:12:27;2.50;;;1.83;;
66139;SDS011;52945;51.908;8.364;2022-10-16T21:18:29;3.40;;;1.60;;
66139;SDS011;52945;51.908;8.364;2022-10-16T21:24:31;2.50;;;1.60;;
66139;SDS011;52945;51.908;8.364;2022-10-16T21:30:39;3.45;;;1.67;;
66139;SDS011;52945;51.908;8.364;2022-10-16T21:33:39;3.20;;;1.90;;
66139;SDS011;52945;51.908;8.364;2022-10-16T21:39:41;3.35;;;1.70;;
66139;SDS011;52945;51.908;8.364;2022-10-16T21:45:42;3.28;;;1.88;;
66139;SDS011;52945;51.908;8.364;2022-10-16T21:48:43;1.90;;;1.65;;
66139;SDS011;52945;51.908;8.364;2022-10-16T21:54:46;2.60;;;1.90;;
66139;SDS011;52945;51.908;8.364;2022-10-16T21:57:47;1.67;;;1.48;;
66139;SDS011;52945;51.908;8.364;2022-10-16T22:03:48;2.72;;;1.80;;
66139;SDS011;52945;51.908;8.364;2022-10-16T22:06:49;2.78;;;2.00;;
66139;SDS011;52945;51.908;8.364;2022-10-16T22:09:49;2.63;;;1.70;;
66139;SDS011;52945;51.908;8.364;2022-10-16T22:15:51;2.90;;;1.88;;
66139;SDS011;52945;51.908;8.364;2022-10-16T22:21:53;2.53;;;1.45;;
66139;SDS011;52945;51.908;8.364;2022-10-16T22:24:56;2.15;;;1.70;;
66139;SDS011;52945;51.908;8.364;2022-10-16T22:27:56;1.50;;;1.40;;